sensor_id;sensor_type;location;lat;lon;timestamp;temperature;humidity
1091;DHT22;534;48.704;9.122;2023-04-01T03:01:37;8.10;89.90
1091;DHT22;534;48.704;9.122;2023-04-01T03:04:04;8.10;89.80
1091;DHT22;534;48.704;9.122;2023-04-01T03:06:31;8.30;89.80
1091;DHT22;534;48.704;9.122;2023-04-01T03:08:58;8.20;89.10
1091;DHT22;534;48.704;9.122;2023-04-01T03:11:25;8.10;89.30
1091;DHT22;534;48.704;9.122;2023-04-01T03:13:52;8.20;89.60
1091;DHT22;534;48.704;9.122;2023-04-01T03:16:18;8.20;89.20
1091;DHT22;534;48.704;9.122;2023-04-01T03:18:46;8.20;89.00
1091;DHT22;534;48.704;9.122;2023-04-01T03:21:15;8.10;89.40
1091;DHT22;534;48.704;9.122;2023-04-01T03:23:42;8.10;89.90
1091;DHT22;534;48.704;9.122;2023-04-01T03:26:09;8.10;89.50
1091;DHT22;534;48.704;9.122;2023-04-01T03:28:36;8.10;89.50
1091;DHT22;534;48.704;9.122;2023-04-01T03:31:02;8.10;89.80
1091;DHT22;534;48.704;9.122;2023-04-01T03:33:29;8.10;89.50
1091;DHT22;534;48.704;9.122;2023-04-01T03:35:57;8.20;89.30
1091;DHT22;534;48.704;9.122;2023-04-01T03:38:24;8.10;89.40
1091;DHT22;534;48.704;9.122;2023-04-01T03:40:51;8.20;89.10
1091;DHT22;534;48.704;9.122;2023-04-01T03:43:17;8.30;89.10
1091;DHT22;534;48.704;9.122;2023-04-01T03:45:44;8.30;88.50
1091;DHT22;534;48.704;9.122;2023-04-01T03:48:11;8.30;88.30
1091;DHT22;534;48.704;9.122;2023-04-01T03:50:38;8.30;88.30
1091;DHT22;534;48.704;9.122;2023-04-01T03:53:06;8.30;88.20
1091;DHT22;534;48.704;9.122;2023-04-01T03:55:33;8.30;88.10
1091;DHT22;534;48.704;9.122;2023-04-01T03:58:01;8.30;87.60
1091;DHT22;534;48.704;9.122;2023-04-01T04:00:28;8.20;87.90
1091;DHT22;534;48.704;9.122;2023-04-01T04:02:55;8.00;87.80
1091;DHT22;534;48.704;9.122;2023-04-01T04:05:23;8.00;88.00
1091;DHT22;534;48.704;9.122;2023-04-01T04:07:50;8.00;88.10
1091;DHT22;534;48.704;9.122;2023-04-01T04:10:19;7.90;88.40
1091;DHT22;534;48.704;9.122;2023-04-01T04:12:49;8.00;87.80
1091;DHT22;534;48.704;9.122;2023-04-01T04:15:16;8.00;87.60
1091;DHT22;534;48.704;9.122;2023-04-01T04:17:44;8.00;87.70
1091;DHT22;534;48.704;9.122;2023-04-01T04:20:11;7.90;87.60
1091;DHT22;534;48.704;9.122;2023-04-01T04:22:38;7.90;87.90
1091;DHT22;534;48.704;9.122;2023-04-01T04:25:05;7.90;87.90
1091;DHT22;534;48.704;9.122;2023-04-01T04:27:33;8.00;88.00
1091;DHT22;534;48.704;9.122;2023-04-01T04:30:00;7.90;87.60
1091;DHT22;534;48.704;9.122;2023-04-01T04:32:27;7.90;87.90
1091;DHT22;534;48.704;9.122;2023-04-01T04:34:53;7.80;88.30
1091;DHT22;534;48.704;9.122;2023-04-01T04:37:20;7.90;88.40
1091;DHT22;534;48.704;9.122;2023-04-01T04:39:47;7.80;88.10
1091;DHT22;534;48.704;9.122;2023-04-01T04:42:13;7.80;88.60
1091;DHT22;534;48.704;9.122;2023-04-01T04:44:41;7.60;89.30
1091;DHT22;534;48.704;9.122;2023-04-01T04:47:08;7.60;89.80
1091;DHT22;534;48.704;9.122;2023-04-01T04:49:35;7.60;90.00
1091;DHT22;534;48.704;9.122;2023-04-01T04:52:02;7.60;90.00
1091;DHT22;534;48.704;9.122;2023-04-01T04:54:29;7.80;89.90
1091;DHT22;534;48.704;9.122;2023-04-01T04:56:56;7.90;89.50
1091;DHT22;534;48.704;9.122;2023-04-01T04:59:22;8.10;88.90
1091;DHT22;534;48.704;9.122;2023-04-01T05:01:50;8.00;88.80
1091;DHT22;534;48.704;9.122;2023-04-01T05:04:17;8.00;89.10
1091;DHT22;534;48.704;9.122;2023-04-01T05:06:44;7.90;89.40
1091;DHT22;534;48.704;9.122;2023-04-01T05:09:11;7.80;90.30
1091;DHT22;534;48.704;9.122;2023-04-01T05:11:37;7.90;90.00
1091;DHT22;534;48.704;9.122;2023-04-01T05:14:04;7.80;90.70
1091;DHT22;534;48.704;9.122;2023-04-01T05:16:31;7.90;90.50
1091;DHT22;534;48.704;9.122;2023-04-01T05:18:59;7.90;90.30
1091;DHT22;534;48.704;9.122;2023-04-01T05:21:25;7.90;90.50
1091;DHT22;534;48.704;9.122;2023-04-01T05:23:52;7.90;90.40
1091;DHT22;534;48.704;9.122;2023-04-01T05:26:19;7.80;90.40
1091;DHT22;534;48.704;9.122;2023-04-01T05:28:45;7.90;90.60
1091;DHT22;534;48.704;9.122;2023-04-01T05:31:12;8.00;89.80
1091;DHT22;534;48.704;9.122;2023-04-01T05:33:39;8.00;89.60
1091;DHT22;534;48.704;9.122;2023-04-01T05:36:09;8.10;89.30
1091;DHT22;534;48.704;9.122;2023-04-01T05:38:36;8.10;88.60
1091;DHT22;534;48.704;9.122;2023-04-01T05:41:03;8.30;88.80
1091;DHT22;534;48.704;9.122;2023-04-01T05:43:30;8.40;87.90
1091;DHT22;534;48.704;9.122;2023-04-01T05:45:57;8.40;87.90
1091;DHT22;534;48.704;9.122;2023-04-01T05:48:24;8.60;87.30
1091;DHT22;534;48.704;9.122;2023-04-01T05:50:50;8.80;90.80
1091;DHT22;534;48.704;9.122;2023-04-01T05:53:19;9.10;88.00
1091;DHT22;534;48.704;9.122;2023-04-01T05:55:45;9.40;86.20
1091;DHT22;534;48.704;9.122;2023-04-01T05:58:12;9.50;83.50
1091;DHT22;534;48.704;9.122;2023-04-01T06:00:39;9.80;83.10
1091;DHT22;534;48.704;9.122;2023-04-01T06:03:05;9.90;81.50
1091;DHT22;534;48.704;9.122;2023-04-01T06:05:38;10.00;80.70
1091;DHT22;534;48.704;9.122;2023-04-01T06:08:10;10.20;80.90
1091;DHT22;534;48.704;9.122;2023-04-01T06:10:48;10.50;79.20
1091;DHT22;534;48.704;9.122;2023-04-01T06:13:26;10.50;78.10
1091;DHT22;534;48.704;9.122;2023-04-01T06:16:04;10.20;80.10
1091;DHT22;534;48.704;9.122;2023-04-01T06:18:45;10.60;79.10
1091;DHT22;534;48.704;9.122;2023-04-01T06:21:34;10.80;77.90
1091;DHT22;534;48.704;9.122;2023-04-01T06:24:25;10.70;77.30
1091;DHT22;534;48.704;9.122;2023-04-01T06:27:00;10.90;78.10
1091;DHT22;534;48.704;9.122;2023-04-01T06:29:44;11.20;76.80
1091;DHT22;534;48.704;9.122;2023-04-01T06:32:33;11.00;75.80
1091;DHT22;534;48.704;9.122;2023-04-01T06:35:17;10.60;76.90
1091;DHT22;534;48.704;9.122;2023-04-01T06:41:08;10.00;80.10
1091;DHT22;534;48.704;9.122;2023-04-01T06:43:53;9.70;80.50
1091;DHT22;534;48.704;9.122;2023-04-01T06:46:31;9.30;82.00
1091;DHT22;534;48.704;9.122;2023-04-01T06:49:12;9.20;83.60
1091;DHT22;534;48.704;9.122;2023-04-01T06:51:51;9.20;83.80
1091;DHT22;534;48.704;9.122;2023-04-01T06:54:23;9.30;83.60
1091;DHT22;534;48.704;9.122;2023-04-01T06:56:56;9.30;83.20
1091;DHT22;534;48.704;9.122;2023-04-01T06:59:28;9.20;83.50
1091;DHT22;534;48.704;9.122;2023-04-01T07:01:59;9.30;83.90
1091;DHT22;534;48.704;9.122;2023-04-01T07:04:30;9.40;84.00
1091;DHT22;534;48.704;9.122;2023-04-01T07:06:59;9.40;83.00
1091;DHT22;534;48.704;9.122;2023-04-01T07:09:30;9.40;83.40
1091;DHT22;534;48.704;9.122;2023-04-01T07:12:01;9.50;83.20
1091;DHT22;534;48.704;9.122;2023-04-01T07:14:32;9.40;83.20
1091;DHT22;534;48.704;9.122;2023-04-01T07:17:05;9.30;83.60
1091;DHT22;534;48.704;9.122;2023-04-01T07:19:39;9.40;83.60
1091;DHT22;534;48.704;9.122;2023-04-01T07:22:16;9.50;84.00
1091;DHT22;534;48.704;9.122;2023-04-01T07:24:48;9.50;83.50
1091;DHT22;534;48.704;9.122;2023-04-01T07:27:15;9.40;83.30
1091;DHT22;534;48.704;9.122;2023-04-01T07:29:43;9.20;83.90
1091;DHT22;534;48.704;9.122;2023-04-01T07:32:20;9.20;84.10
1091;DHT22;534;48.704;9.122;2023-04-01T07:34:59;9.00;85.10
1091;DHT22;534;48.704;9.122;2023-04-01T07:37:32;9.00;85.10
1091;DHT22;534;48.704;9.122;2023-04-01T07:40:08;9.10;85.10
1091;DHT22;534;48.704;9.122;2023-04-01T07:42:48;9.10;85.30
1091;DHT22;534;48.704;9.122;2023-04-01T07:45:24;9.20;84.90
1091;DHT22;534;48.704;9.122;2023-04-01T07:48:09;9.30;85.40
1091;DHT22;534;48.704;9.122;2023-04-01T07:50:43;9.40;85.10
1091;DHT22;534;48.704;9.122;2023-04-01T07:53:16;9.50;83.90
1091;DHT22;534;48.704;9.122;2023-04-01T07:55:50;9.50;84.20
1091;DHT22;534;48.704;9.122;2023-04-01T07:58:22;9.50;84.50
1091;DHT22;534;48.704;9.122;2023-04-01T08:00:58;9.60;84.60
1091;DHT22;534;48.704;9.122;2023-04-01T08:03:36;9.40;84.50
1091;DHT22;534;48.704;9.122;2023-04-01T08:06:10;9.50;85.30
1091;DHT22;534;48.704;9.122;2023-04-01T08:08:49;9.50;84.70
1091;DHT22;534;48.704;9.122;2023-04-01T08:11:28;9.60;84.50
1091;DHT22;534;48.704;9.122;2023-04-01T08:14:08;9.60;84.60
1091;DHT22;534;48.704;9.122;2023-04-01T08:16:45;9.60;84.80
1091;DHT22;534;48.704;9.122;2023-04-01T08:19:24;9.50;84.80
1091;DHT22;534;48.704;9.122;2023-04-01T08:21:58;9.50;86.20
1091;DHT22;534;48.704;9.122;2023-04-01T08:24:34;9.50;85.70
1091;DHT22;534;48.704;9.122;2023-04-01T08:27:09;9.60;86.10
1091;DHT22;534;48.704;9.122;2023-04-01T08:29:42;9.60;84.90
1091;DHT22;534;48.704;9.122;2023-04-01T08:32:15;9.50;85.70
1091;DHT22;534;48.704;9.122;2023-04-01T08:34:47;9.60;85.50
1091;DHT22;534;48.704;9.122;2023-04-01T08:37:19;9.50;85.50
1091;DHT22;534;48.704;9.122;2023-04-01T08:39:49;9.50;85.80
1091;DHT22;534;48.704;9.122;2023-04-01T08:42:36;9.50;86.10
1091;DHT22;534;48.704;9.122;2023-04-01T08:45:21;9.40;86.70
1091;DHT22;534;48.704;9.122;2023-04-01T08:51:10;9.60;86.40
1091;DHT22;534;48.704;9.122;2023-04-01T08:54:02;9.70;86.50
1091;DHT22;534;48.704;9.122;2023-04-01T08:56:35;9.60;86.30
1091;DHT22;534;48.704;9.122;2023-04-01T08:59:29;9.60;87.10
1091;DHT22;534;48.704;9.122;2023-04-01T09:02:12;9.60;86.90
1091;DHT22;534;48.704;9.122;2023-04-01T09:05:06;9.50;86.80
1091;DHT22;534;48.704;9.122;2023-04-01T09:07:47;9.40;86.90
1091;DHT22;534;48.704;9.122;2023-04-01T09:10:40;9.40;87.70
1091;DHT22;534;48.704;9.122;2023-04-01T09:16:26;9.30;87.30
1091;DHT22;534;48.704;9.122;2023-04-01T09:22:23;9.80;88.70
1091;DHT22;534;48.704;9.122;2023-04-01T09:25:12;9.90;86.10
1091;DHT22;534;48.704;9.122;2023-04-01T09:27:44;9.90;86.00
1091;DHT22;534;48.704;9.122;2023-04-01T09:30:38;10.00;86.00
1091;DHT22;534;48.704;9.122;2023-04-01T09:36:16;10.40;85.10
1091;DHT22;534;48.704;9.122;2023-04-01T09:38:55;10.40;82.70
1091;DHT22;534;48.704;9.122;2023-04-01T09:41:29;10.40;82.90
1091;DHT22;534;48.704;9.122;2023-04-01T09:44:01;10.30;83.00
1091;DHT22;534;48.704;9.122;2023-04-01T09:49:43;10.10;84.10
1091;DHT22;534;48.704;9.122;2023-04-01T09:52:28;10.20;84.10
1091;DHT22;534;48.704;9.122;2023-04-01T09:55:19;10.20;83.30
1091;DHT22;534;48.704;9.122;2023-04-01T10:01:25;10.10;83.90
1091;DHT22;534;48.704;9.122;2023-04-01T10:10:53;9.90;82.80
1091;DHT22;534;48.704;9.122;2023-04-01T10:19:55;10.00;83.50
1091;DHT22;534;48.704;9.122;2023-04-01T10:22:42;10.00;82.20
1091;DHT22;534;48.704;9.122;2023-04-01T10:25:35;10.10;81.40
1091;DHT22;534;48.704;9.122;2023-04-01T10:28:41;10.10;81.60
1091;DHT22;534;48.704;9.122;2023-04-01T10:31:43;10.20;81.30
1091;DHT22;534;48.704;9.122;2023-04-01T10:37:40;10.40;80.50
1091;DHT22;534;48.704;9.122;2023-04-01T10:40:53;10.40;80.00
1091;DHT22;534;48.704;9.122;2023-04-01T10:47:12;10.40;79.30
1091;DHT22;534;48.704;9.122;2023-04-01T10:53:00;10.40;79.70
1091;DHT22;534;48.704;9.122;2023-04-01T10:55:56;10.60;79.30
1091;DHT22;534;48.704;9.122;2023-04-01T10:59:02;10.50;78.90
1091;DHT22;534;48.704;9.122;2023-04-01T11:02:14;10.40;79.70
1091;DHT22;534;48.704;9.122;2023-04-01T11:11:12;10.40;79.80
1091;DHT22;534;48.704;9.122;2023-04-01T11:14:13;10.40;80.20
1091;DHT22;534;48.704;9.122;2023-04-01T11:17:10;10.40;80.40
1091;DHT22;534;48.704;9.122;2023-04-01T11:23:01;10.90;79.70
1091;DHT22;534;48.704;9.122;2023-04-01T11:29:00;10.60;78.20
1091;DHT22;534;48.704;9.122;2023-04-01T11:31:37;10.50;78.60
1091;DHT22;534;48.704;9.122;2023-04-01T11:34:27;10.50;78.50
1091;DHT22;534;48.704;9.122;2023-04-01T11:37:05;10.70;78.20
1091;DHT22;534;48.704;9.122;2023-04-01T11:39:46;10.60;78.00
1091;DHT22;534;48.704;9.122;2023-04-01T11:42:22;10.60;77.20
1091;DHT22;534;48.704;9.122;2023-04-01T11:45:00;10.60;77.80
1091;DHT22;534;48.704;9.122;2023-04-01T11:47:49;10.70;77.20
1091;DHT22;534;48.704;9.122;2023-04-01T11:50:24;10.50;78.10
1091;DHT22;534;48.704;9.122;2023-04-01T11:53:13;10.80;77.50
1091;DHT22;534;48.704;9.122;2023-04-01T11:55:51;10.60;77.90
1091;DHT22;534;48.704;9.122;2023-04-01T11:58:29;10.60;78.70
1091;DHT22;534;48.704;9.122;2023-04-01T12:01:06;10.70;78.00
1091;DHT22;534;48.704;9.122;2023-04-01T12:03:48;10.80;78.00
1091;DHT22;534;48.704;9.122;2023-04-01T12:06:24;10.70;77.60
1091;DHT22;534;48.704;9.122;2023-04-01T12:08:59;10.80;78.00
1091;DHT22;534;48.704;9.122;2023-04-01T12:11:33;10.90;77.60
1091;DHT22;534;48.704;9.122;2023-04-01T12:14:08;11.10;77.20
1091;DHT22;534;48.704;9.122;2023-04-01T12:16:45;11.20;77.20
1091;DHT22;534;48.704;9.122;2023-04-01T12:19:18;11.40;76.70
1091;DHT22;534;48.704;9.122;2023-04-01T12:21:55;11.50;75.90
1091;DHT22;534;48.704;9.122;2023-04-01T12:24:56;11.70;75.10
1091;DHT22;534;48.704;9.122;2023-04-01T12:27:32;11.80;76.10
1091;DHT22;534;48.704;9.122;2023-04-01T12:33:25;11.70;75.10
1091;DHT22;534;48.704;9.122;2023-04-01T12:36:02;11.80;75.90
1091;DHT22;534;48.704;9.122;2023-04-01T12:38:41;11.80;75.60
1091;DHT22;534;48.704;9.122;2023-04-01T12:41:17;11.50;75.40
1091;DHT22;534;48.704;9.122;2023-04-01T12:43:59;11.40;76.40
1091;DHT22;534;48.704;9.122;2023-04-01T12:46:34;11.30;77.20
1091;DHT22;534;48.704;9.122;2023-04-01T12:49:34;11.10;76.90
1091;DHT22;534;48.704;9.122;2023-04-01T12:52:09;11.30;77.90
1091;DHT22;534;48.704;9.122;2023-04-01T12:54:55;11.70;76.70
1091;DHT22;534;48.704;9.122;2023-04-01T12:57:39;12.20;75.30
1091;DHT22;534;48.704;9.122;2023-04-01T13:00:25;12.50;73.60
1091;DHT22;534;48.704;9.122;2023-04-01T13:03:06;12.60;72.70
1091;DHT22;534;48.704;9.122;2023-04-01T13:06:04;12.50;72.90
1091;DHT22;534;48.704;9.122;2023-04-01T13:08:42;12.20;72.30
1091;DHT22;534;48.704;9.122;2023-04-01T13:11:18;12.10;73.60
1091;DHT22;534;48.704;9.122;2023-04-01T13:14:23;12.00;73.30
1091;DHT22;534;48.704;9.122;2023-04-01T13:16:55;12.00;73.40
1091;DHT22;534;48.704;9.122;2023-04-01T13:19:29;12.10;74.00
1091;DHT22;534;48.704;9.122;2023-04-01T13:22:04;12.10;73.40
1091;DHT22;534;48.704;9.122;2023-04-01T13:24:44;11.90;73.70
1091;DHT22;534;48.704;9.122;2023-04-01T13:27:17;12.10;75.20
1091;DHT22;534;48.704;9.122;2023-04-01T13:29:54;12.10;73.40
1091;DHT22;534;48.704;9.122;2023-04-01T13:32:29;12.00;73.90
1091;DHT22;534;48.704;9.122;2023-04-01T13:35:10;12.00;74.20
1091;DHT22;534;48.704;9.122;2023-04-01T13:37:52;11.70;74.50
1091;DHT22;534;48.704;9.122;2023-04-01T13:40:32;11.70;74.70
1091;DHT22;534;48.704;9.122;2023-04-01T13:43:04;11.80;75.60
1091;DHT22;534;48.704;9.122;2023-04-01T13:45:38;11.70;75.10
1091;DHT22;534;48.704;9.122;2023-04-01T13:48:27;11.80;74.70
1091;DHT22;534;48.704;9.122;2023-04-01T13:54:04;11.90;75.10
1091;DHT22;534;48.704;9.122;2023-04-01T13:56:42;12.10;75.40
1091;DHT22;534;48.704;9.122;2023-04-01T13:59:29;12.30;73.70
1091;DHT22;534;48.704;9.122;2023-04-01T14:02:07;12.20;74.40
1091;DHT22;534;48.704;9.122;2023-04-01T14:04:50;12.30;74.50
1091;DHT22;534;48.704;9.122;2023-04-01T14:07:32;12.40;74.30
1091;DHT22;534;48.704;9.122;2023-04-01T14:10:18;12.70;73.80
1091;DHT22;534;48.704;9.122;2023-04-01T14:12:53;12.80;72.70
1091;DHT22;534;48.704;9.122;2023-04-01T14:15:36;12.90;72.20
1091;DHT22;534;48.704;9.122;2023-04-01T14:18:27;12.60;73.10
1091;DHT22;534;48.704;9.122;2023-04-01T14:21:11;12.30;74.00
1091;DHT22;534;48.704;9.122;2023-04-01T14:24:18;12.10;74.30
1091;DHT22;534;48.704;9.122;2023-04-01T14:27:16;12.00;75.70
1091;DHT22;534;48.704;9.122;2023-04-01T14:29:59;11.90;75.20
1091;DHT22;534;48.704;9.122;2023-04-01T14:32:38;11.80;75.10
1091;DHT22;534;48.704;9.122;2023-04-01T14:35:23;11.80;75.20
1091;DHT22;534;48.704;9.122;2023-04-01T14:38:02;11.80;76.50
1091;DHT22;534;48.704;9.122;2023-04-01T14:40:45;11.60;75.90
1091;DHT22;534;48.704;9.122;2023-04-01T14:43:46;11.70;76.00
1091;DHT22;534;48.704;9.122;2023-04-01T14:46:38;11.30;76.00
1091;DHT22;534;48.704;9.122;2023-04-01T14:49:17;11.30;76.70
1091;DHT22;534;48.704;9.122;2023-04-01T14:51:46;11.50;75.60
1091;DHT22;534;48.704;9.122;2023-04-01T14:54:15;11.50;75.90
1091;DHT22;534;48.704;9.122;2023-04-01T14:56:49;11.50;75.30
1091;DHT22;534;48.704;9.122;2023-04-01T14:59:27;11.50;74.70
1091;DHT22;534;48.704;9.122;2023-04-01T15:01:59;11.40;75.20
1091;DHT22;534;48.704;9.122;2023-04-01T15:04:46;11.30;74.80
1091;DHT22;534;48.704;9.122;2023-04-01T15:07:26;11.40;74.80
1091;DHT22;534;48.704;9.122;2023-04-01T15:10:01;11.40;75.00
1091;DHT22;534;48.704;9.122;2023-04-01T15:12:32;11.50;74.90
1091;DHT22;534;48.704;9.122;2023-04-01T15:15:21;11.60;75.90
1091;DHT22;534;48.704;9.122;2023-04-01T15:18:02;11.50;75.50
1091;DHT22;534;48.704;9.122;2023-04-01T15:21:08;11.50;75.50
1091;DHT22;534;48.704;9.122;2023-04-01T15:23:50;11.20;76.20
1091;DHT22;534;48.704;9.122;2023-04-01T15:26:29;11.20;76.40
1091;DHT22;534;48.704;9.122;2023-04-01T15:29:26;11.10;76.90
1091;DHT22;534;48.704;9.122;2023-04-01T15:32:01;11.20;76.90
1091;DHT22;534;48.704;9.122;2023-04-01T15:34:35;11.10;76.90
1091;DHT22;534;48.704;9.122;2023-04-01T15:37:09;11.00;76.90
1091;DHT22;534;48.704;9.122;2023-04-01T15:39:48;11.10;77.50
1091;DHT22;534;48.704;9.122;2023-04-01T15:42:27;11.00;77.10
1091;DHT22;534;48.704;9.122;2023-04-01T15:45:07;11.00;77.60
1091;DHT22;534;48.704;9.122;2023-04-01T15:47:40;11.00;77.80
1091;DHT22;534;48.704;9.122;2023-04-01T15:50:40;11.10;77.10
1091;DHT22;534;48.704;9.122;2023-04-01T15:53:19;11.20;77.70
1091;DHT22;534;48.704;9.122;2023-04-01T15:55:57;11.30;77.10
1091;DHT22;534;48.704;9.122;2023-04-01T15:58:44;11.10;77.00
1091;DHT22;534;48.704;9.122;2023-04-01T16:01:24;11.00;78.10
1091;DHT22;534;48.704;9.122;2023-04-01T16:03:59;10.90;78.80
1091;DHT22;534;48.704;9.122;2023-04-01T16:06:48;11.00;79.10
1091;DHT22;534;48.704;9.122;2023-04-01T16:09:30;11.00;79.30
1091;DHT22;534;48.704;9.122;2023-04-01T16:12:05;11.00;79.20
1091;DHT22;534;48.704;9.122;2023-04-01T16:14:40;11.00;80.10
1091;DHT22;534;48.704;9.122;2023-04-01T16:20:19;10.90;80.20
1091;DHT22;534;48.704;9.122;2023-04-01T16:22:53;11.00;80.00
1091;DHT22;534;48.704;9.122;2023-04-01T16:25:31;11.00;80.50
1091;DHT22;534;48.704;9.122;2023-04-01T16:28:09;11.10;79.90
1091;DHT22;534;48.704;9.122;2023-04-01T16:30:44;11.10;79.50
1091;DHT22;534;48.704;9.122;2023-04-01T16:33:15;11.10;78.70
1091;DHT22;534;48.704;9.122;2023-04-01T16:35:54;11.20;79.00
1091;DHT22;534;48.704;9.122;2023-04-01T16:38:25;11.20;78.90
1091;DHT22;534;48.704;9.122;2023-04-01T16:41:05;11.10;78.80
1091;DHT22;534;48.704;9.122;2023-04-01T16:43:39;11.20;79.30
1091;DHT22;534;48.704;9.122;2023-04-01T16:46:29;11.30;78.30
1091;DHT22;534;48.704;9.122;2023-04-01T16:49:04;11.30;78.70
1091;DHT22;534;48.704;9.122;2023-04-01T16:51:46;11.30;78.80
1091;DHT22;534;48.704;9.122;2023-04-01T16:54:18;11.30;77.60
1091;DHT22;534;48.704;9.122;2023-04-01T16:56:53;11.30;78.10
1091;DHT22;534;48.704;9.122;2023-04-01T16:59:25;11.40;78.50
1091;DHT22;534;48.704;9.122;2023-04-01T17:01:54;11.40;77.10
1091;DHT22;534;48.704;9.122;2023-04-01T17:04:31;11.40;77.70
1091;DHT22;534;48.704;9.122;2023-04-01T17:07:10;11.40;77.10
1091;DHT22;534;48.704;9.122;2023-04-01T17:09:50;11.40;77.30
1091;DHT22;534;48.704;9.122;2023-04-01T17:12:23;11.50;77.30
1091;DHT22;534;48.704;9.122;2023-04-01T17:14:57;11.50;76.90
1091;DHT22;534;48.704;9.122;2023-04-01T17:17:36;11.60;76.70
1091;DHT22;534;48.704;9.122;2023-04-01T17:20:14;11.50;76.50
1091;DHT22;534;48.704;9.122;2023-04-01T17:22:50;11.60;76.80
1091;DHT22;534;48.704;9.122;2023-04-01T17:25:37;11.60;76.60
1091;DHT22;534;48.704;9.122;2023-04-01T17:28:16;11.40;77.10
1091;DHT22;534;48.704;9.122;2023-04-01T17:30:49;11.30;77.30
1091;DHT22;534;48.704;9.122;2023-04-01T17:33:41;11.20;77.60
1091;DHT22;534;48.704;9.122;2023-04-01T17:36:16;11.30;77.70
1091;DHT22;534;48.704;9.122;2023-04-01T17:39:00;11.30;78.00
1091;DHT22;534;48.704;9.122;2023-04-01T17:41:36;11.40;77.80
1091;DHT22;534;48.704;9.122;2023-04-01T17:44:17;11.30;77.50
1091;DHT22;534;48.704;9.122;2023-04-01T17:47:04;11.30;77.90
1091;DHT22;534;48.704;9.122;2023-04-01T17:49:38;11.30;78.10
1091;DHT22;534;48.704;9.122;2023-04-01T17:52:15;11.30;78.20
1091;DHT22;534;48.704;9.122;2023-04-01T17:54:47;11.20;78.10
1091;DHT22;534;48.704;9.122;2023-04-01T17:57:43;11.10;79.00
1091;DHT22;534;48.704;9.122;2023-04-01T18:00:21;10.90;79.20
1091;DHT22;534;48.704;9.122;2023-04-01T18:02:57;11.00;79.90
1091;DHT22;534;48.704;9.122;2023-04-01T18:05:52;11.20;79.60
1091;DHT22;534;48.704;9.122;2023-04-01T18:08:35;11.30;79.30
1091;DHT22;534;48.704;9.122;2023-04-01T18:11:11;11.30;79.30
1091;DHT22;534;48.704;9.122;2023-04-01T18:13:59;11.20;79.70
1091;DHT22;534;48.704;9.122;2023-04-01T18:16:49;11.10;80.10
1091;DHT22;534;48.704;9.122;2023-04-01T18:19:24;11.20;80.30
1091;DHT22;534;48.704;9.122;2023-04-01T18:21:58;11.00;81.40
1091;DHT22;534;48.704;9.122;2023-04-01T18:24:28;11.00;81.70
1091;DHT22;534;48.704;9.122;2023-04-01T18:27:04;10.90;81.80
1091;DHT22;534;48.704;9.122;2023-04-01T18:29:37;10.80;80.40
1091;DHT22;534;48.704;9.122;2023-04-01T18:32:13;10.60;80.90
1091;DHT22;534;48.704;9.122;2023-04-01T18:34:50;10.60;81.60
1091;DHT22;534;48.704;9.122;2023-04-01T18:37:23;10.40;80.70
1091;DHT22;534;48.704;9.122;2023-04-01T18:39:53;10.30;81.50
1091;DHT22;534;48.704;9.122;2023-04-01T18:42:33;10.40;81.50
1091;DHT22;534;48.704;9.122;2023-04-01T18:45:14;10.40;80.60
1091;DHT22;534;48.704;9.122;2023-04-01T18:47:47;10.30;80.60
1091;DHT22;534;48.704;9.122;2023-04-01T18:50:22;10.40;79.70
1091;DHT22;534;48.704;9.122;2023-04-01T18:52:53;10.40;80.00
1091;DHT22;534;48.704;9.122;2023-04-01T18:55:30;10.50;79.60
1091;DHT22;534;48.704;9.122;2023-04-01T19:01:07;10.30;78.90
1091;DHT22;534;48.704;9.122;2023-04-01T19:03:43;10.30;79.00
1091;DHT22;534;48.704;9.122;2023-04-01T19:06:17;10.30;79.00
1091;DHT22;534;48.704;9.122;2023-04-01T19:08:46;10.30;78.90
1091;DHT22;534;48.704;9.122;2023-04-01T19:11:20;10.20;79.40
1091;DHT22;534;48.704;9.122;2023-04-01T19:13:54;10.30;79.20
1091;DHT22;534;48.704;9.122;2023-04-01T19:16:36;10.30;79.30
1091;DHT22;534;48.704;9.122;2023-04-01T19:19:23;10.50;78.90
1091;DHT22;534;48.704;9.122;2023-04-01T19:21:56;10.40;78.80
1091;DHT22;534;48.704;9.122;2023-04-01T19:24:51;10.40;78.80
1091;DHT22;534;48.704;9.122;2023-04-01T19:27:29;10.30;78.90
1091;DHT22;534;48.704;9.122;2023-04-01T19:30:13;10.40;79.10
1091;DHT22;534;48.704;9.122;2023-04-01T19:32:49;10.30;79.40
1091;DHT22;534;48.704;9.122;2023-04-01T19:35:28;10.30;79.20
1091;DHT22;534;48.704;9.122;2023-04-01T19:37:59;10.10;80.20
1091;DHT22;534;48.704;9.122;2023-04-01T19:40:45;9.90;80.50
1091;DHT22;534;48.704;9.122;2023-04-01T19:43:21;9.80;81.20
1091;DHT22;534;48.704;9.122;2023-04-01T19:46:01;9.90;81.10
1091;DHT22;534;48.704;9.122;2023-04-01T19:48:42;9.90;81.00
1091;DHT22;534;48.704;9.122;2023-04-01T19:51:14;9.80;81.50
1091;DHT22;534;48.704;9.122;2023-04-01T19:53:47;9.70;81.40
1091;DHT22;534;48.704;9.122;2023-04-01T19:56:18;9.80;81.70
1091;DHT22;534;48.704;9.122;2023-04-01T19:58:51;9.90;81.40
1091;DHT22;534;48.704;9.122;2023-04-01T20:01:24;9.90;81.00
1091;DHT22;534;48.704;9.122;2023-04-01T20:03:55;9.90;80.90
1091;DHT22;534;48.704;9.122;2023-04-01T20:06:29;10.00;80.60
1091;DHT22;534;48.704;9.122;2023-04-01T20:09:10;10.10;80.50
1091;DHT22;534;48.704;9.122;2023-04-01T20:11:46;10.20;80.50
1091;DHT22;534;48.704;9.122;2023-04-01T20:14:24;10.30;79.90
1091;DHT22;534;48.704;9.122;2023-04-01T20:17:02;10.50;79.70
1091;DHT22;534;48.704;9.122;2023-04-01T20:19:37;10.60;79.20
1091;DHT22;534;48.704;9.122;2023-04-01T20:22:16;10.60;79.00
1091;DHT22;534;48.704;9.122;2023-04-01T20:24:51;10.50;79.30
1091;DHT22;534;48.704;9.122;2023-04-01T20:27:22;10.60;79.30
1091;DHT22;534;48.704;9.122;2023-04-01T20:30:04;10.60;78.90
1091;DHT22;534;48.704;9.122;2023-04-01T20:32:45;10.40;79.40
1091;DHT22;534;48.704;9.122;2023-04-01T20:35:30;10.30;80.30
1091;DHT22;534;48.704;9.122;2023-04-01T20:38:18;10.30;80.30
1091;DHT22;534;48.704;9.122;2023-04-01T20:40:50;10.30;80.30
1091;DHT22;534;48.704;9.122;2023-04-01T20:43:29;10.10;80.80
1091;DHT22;534;48.704;9.122;2023-04-01T20:46:01;10.00;81.80
1091;DHT22;534;48.704;9.122;2023-04-01T20:48:46;10.10;81.80
1091;DHT22;534;48.704;9.122;2023-04-01T20:51:22;10.00;81.90
1091;DHT22;534;48.704;9.122;2023-04-01T20:53:53;10.10;81.90
1091;DHT22;534;48.704;9.122;2023-04-01T20:56:36;10.10;81.50
1091;DHT22;534;48.704;9.122;2023-04-01T20:59:16;10.20;82.00
